sensor_id;sensor_type;location;lat;lon;timestamp;pressure;altitude;pressure_sealevel;temperature;humidity
6208;BME280;3137;51.550;7.060;2023-11-19T00:01:55;100646.03;;;10.71;100.00
6208;BME280;3137;51.550;7.060;2023-11-19T00:04:23;100658.28;;;10.73;100.00
6208;BME280;3137;51.550;7.060;2023-11-19T00:06:49;100649.09;;;10.76;100.00
6208;BME280;3137;51.550;7.060;2023-11-19T00:09:16;100655.28;;;10.76;100.00
6208;BME280;3137;51.550;7.060;2023-11-19T00:11:44;100650.78;;;10.77;100.00
6208;BME280;3137;51.550;7.060;2023-11-19T00:14:20;100656.66;;;10.80;100.00
6208;BME280;3137;51.550;7.060;2023-11-19T00:16:46;100648.00;;;10.86;100.00
6208;BME280;3137;51.550;7.060;2023-11-19T00:19:12;100643.50;;;10.87;100.00
6208;BME280;3137;51.550;7.060;2023-11-19T00:21:39;100645.31;;;10.86;100.00
6208;BME280;3137;51.550;7.060;2023-11-19T00:24:08;100653.91;;;10.90;100.00
6208;BME280;3137;51.550;7.060;2023-11-19T00:26:34;100655.56;;;10.91;100.00
6208;BME280;3137;51.550;7.060;2023-11-19T00:29:01;100646.22;;;10.95;100.00
6208;BME280;3137;51.550;7.060;2023-11-19T00:31:28;100643.78;;;11.02;100.00
6208;BME280;3137;51.550;7.060;2023-11-19T00:33:56;100641.09;;;11.02;100.00
6208;BME280;3137;51.550;7.060;2023-11-19T00:36:23;100633.22;;;11.00;100.00
6208;BME280;3137;51.550;7.060;2023-11-19T00:38:50;100630.56;;;11.00;100.00
6208;BME280;3137;51.550;7.060;2023-11-19T00:41:16;100620.47;;;11.12;100.00
6208;BME280;3137;51.550;7.060;2023-11-19T00:43:43;100613.94;;;11.14;100.00
6208;BME280;3137;51.550;7.060;2023-11-19T00:46:10;100611.41;;;11.13;100.00
6208;BME280;3137;51.550;7.060;2023-11-19T00:48:40;100602.44;;;11.22;100.00
6208;BME280;3137;51.550;7.060;2023-11-19T00:51:07;100611.81;;;11.26;100.00
6208;BME280;3137;51.550;7.060;2023-11-19T00:53:34;100603.66;;;11.27;100.00
6208;BME280;3137;51.550;7.060;2023-11-19T00:56:00;100593.31;;;11.32;100.00
6208;BME280;3137;51.550;7.060;2023-11-19T00:58:27;100597.84;;;11.40;100.00
6208;BME280;3137;51.550;7.060;2023-11-19T01:00:53;100591.50;;;11.41;100.00
6208;BME280;3137;51.550;7.060;2023-11-19T01:03:20;100585.31;;;11.40;100.00
6208;BME280;3137;51.550;7.060;2023-11-19T01:05:47;100585.31;;;11.40;100.00
6208;BME280;3137;51.550;7.060;2023-11-19T01:08:14;100586.00;;;11.51;100.00
6208;BME280;3137;51.550;7.060;2023-11-19T01:10:42;100588.91;;;11.57;100.00
6208;BME280;3137;51.550;7.060;2023-11-19T01:13:08;100586.41;;;11.64;100.00
6208;BME280;3137;51.550;7.060;2023-11-19T01:15:35;100585.75;;;11.62;100.00
6208;BME280;3137;51.550;7.060;2023-11-19T01:18:01;100594.78;;;11.69;100.00
6208;BME280;3137;51.550;7.060;2023-11-19T01:20:31;100591.81;;;11.72;100.00
6208;BME280;3137;51.550;7.060;2023-11-19T01:22:57;100593.00;;;11.77;100.00
6208;BME280;3137;51.550;7.060;2023-11-19T01:25:24;100591.81;;;11.72;100.00
6208;BME280;3137;51.550;7.060;2023-11-19T01:27:50;100604.72;;;11.76;100.00
6208;BME280;3137;51.550;7.060;2023-11-19T01:30:17;100593.72;;;11.79;100.00
6208;BME280;3137;51.550;7.060;2023-11-19T01:32:43;100589.00;;;11.73;100.00
6208;BME280;3137;51.550;7.060;2023-11-19T01:35:10;100596.91;;;11.91;100.00
6208;BME280;3137;51.550;7.060;2023-11-19T01:37:36;100598.91;;;11.97;100.00
6208;BME280;3137;51.550;7.060;2023-11-19T01:40:03;100596.78;;;12.01;100.00
6208;BME280;3137;51.550;7.060;2023-11-19T01:42:38;100600.81;;;12.05;100.00
6208;BME280;3137;51.550;7.060;2023-11-19T01:45:06;100587.06;;;12.00;100.00
6208;BME280;3137;51.550;7.060;2023-11-19T01:47:35;100584.72;;;12.05;100.00
6208;BME280;3137;51.550;7.060;2023-11-19T01:50:03;100579.53;;;12.03;100.00
6208;BME280;3137;51.550;7.060;2023-11-19T01:52:34;100566.28;;;12.10;100.00
6208;BME280;3137;51.550;7.060;2023-11-19T01:55:03;100564.94;;;12.14;100.00
6208;BME280;3137;51.550;7.060;2023-11-19T01:57:30;100564.28;;;12.12;100.00
6208;BME280;3137;51.550;7.060;2023-11-19T01:59:56;100559.44;;;12.15;100.00
6208;BME280;3137;51.550;7.060;2023-11-19T02:02:23;100547.72;;;12.16;100.00
6208;BME280;3137;51.550;7.060;2023-11-19T02:04:50;100549.22;;;12.19;100.00
6208;BME280;3137;51.550;7.060;2023-11-19T02:07:18;100548.06;;;12.13;100.00
6208;BME280;3137;51.550;7.060;2023-11-19T02:09:44;100554.28;;;12.22;100.00
6208;BME280;3137;51.550;7.060;2023-11-19T02:12:11;100544.72;;;12.27;100.00
6208;BME280;3137;51.550;7.060;2023-11-19T02:14:38;100541.38;;;12.33;100.00
6208;BME280;3137;51.550;7.060;2023-11-19T02:17:04;100520.41;;;12.37;99.68
6208;BME280;3137;51.550;7.060;2023-11-19T02:19:31;100512.38;;;12.37;99.85
6208;BME280;3137;51.550;7.060;2023-11-19T02:21:58;100520.91;;;12.41;99.83
6208;BME280;3137;51.550;7.060;2023-11-19T02:24:26;100533.31;;;12.42;99.87
6208;BME280;3137;51.550;7.060;2023-11-19T02:27:10;100532.13;;;12.44;99.60
6208;BME280;3137;51.550;7.060;2023-11-19T02:29:42;100532.63;;;12.40;99.26
6208;BME280;3137;51.550;7.060;2023-11-19T02:32:08;100532.47;;;12.41;99.66
6208;BME280;3137;51.550;7.060;2023-11-19T02:34:35;100526.13;;;12.42;98.29
6208;BME280;3137;51.550;7.060;2023-11-19T02:37:02;100517.09;;;12.43;98.84
6208;BME280;3137;51.550;7.060;2023-11-19T02:39:29;100519.91;;;12.50;98.54
6208;BME280;3137;51.550;7.060;2023-11-19T02:41:55;100520.41;;;12.53;97.89
6208;BME280;3137;51.550;7.060;2023-11-19T02:44:22;100519.75;;;12.51;98.06
6208;BME280;3137;51.550;7.060;2023-11-19T02:46:48;100519.06;;;12.49;97.68
6208;BME280;3137;51.550;7.060;2023-11-19T02:49:15;100525.13;;;12.51;97.79
6208;BME280;3137;51.550;7.060;2023-11-19T02:51:42;100513.22;;;12.46;98.15
6208;BME280;3137;51.550;7.060;2023-11-19T02:54:08;100517.91;;;12.52;98.06
6208;BME280;3137;51.550;7.060;2023-11-19T02:56:36;100508.84;;;12.53;97.69
6208;BME280;3137;51.550;7.060;2023-11-19T02:59:03;100506.16;;;12.53;97.62
6208;BME280;3137;51.550;7.060;2023-11-19T03:01:41;100509.03;;;12.51;97.72
6208;BME280;3137;51.550;7.060;2023-11-19T03:04:10;100498.09;;;12.53;97.75
6208;BME280;3137;51.550;7.060;2023-11-19T03:06:38;100499.78;;;12.54;97.78
6208;BME280;3137;51.550;7.060;2023-11-19T03:09:05;100505.50;;;12.59;97.55
6208;BME280;3137;51.550;7.060;2023-11-19T03:11:37;100498.78;;;12.55;97.61
6208;BME280;3137;51.550;7.060;2023-11-19T03:14:03;100502.47;;;12.54;97.19
6208;BME280;3137;51.550;7.060;2023-11-19T03:16:30;100520.75;;;12.58;97.32
6208;BME280;3137;51.550;7.060;2023-11-19T03:18:56;100503.97;;;12.56;97.01
6208;BME280;3137;51.550;7.060;2023-11-19T03:21:30;100498.94;;;12.61;96.95
6208;BME280;3137;51.550;7.060;2023-11-19T03:23:58;100486.22;;;12.63;96.94
6208;BME280;3137;51.550;7.060;2023-11-19T03:26:27;100490.56;;;12.64;97.18
6208;BME280;3137;51.550;7.060;2023-11-19T03:28:53;100492.06;;;12.67;97.08
6208;BME280;3137;51.550;7.060;2023-11-19T03:31:20;100507.66;;;12.71;96.30
6208;BME280;3137;51.550;7.060;2023-11-19T03:33:47;100519.72;;;12.67;96.46
6208;BME280;3137;51.550;7.060;2023-11-19T03:36:13;100521.75;;;12.57;96.99
6208;BME280;3137;51.550;7.060;2023-11-19T03:38:40;100507.31;;;12.58;96.42
6208;BME280;3137;51.550;7.060;2023-11-19T03:41:12;100503.97;;;12.48;96.95
6208;BME280;3137;51.550;7.060;2023-11-19T03:43:40;100503.31;;;12.54;96.52
6208;BME280;3137;51.550;7.060;2023-11-19T03:46:19;100506.00;;;12.46;96.56
6208;BME280;3137;51.550;7.060;2023-11-19T03:48:48;100506.84;;;12.39;96.45
6208;BME280;3137;51.550;7.060;2023-11-19T03:51:15;100517.91;;;12.52;95.96
6208;BME280;3137;51.550;7.060;2023-11-19T03:53:43;100515.38;;;12.50;95.03
6208;BME280;3137;51.550;7.060;2023-11-19T03:56:10;100521.59;;;12.51;94.50
6208;BME280;3137;51.550;7.060;2023-11-19T03:58:38;100517.38;;;12.48;94.58
6208;BME280;3137;51.550;7.060;2023-11-19T04:01:05;100534.31;;;12.49;94.17
6208;BME280;3137;51.550;7.060;2023-11-19T04:03:32;100523.09;;;12.45;94.03
6208;BME280;3137;51.550;7.060;2023-11-19T04:05:59;100517.88;;;12.44;93.61
6208;BME280;3137;51.550;7.060;2023-11-19T04:08:26;100519.06;;;12.41;93.40
6208;BME280;3137;51.550;7.060;2023-11-19T04:10:52;100522.75;;;12.40;93.23
6208;BME280;3137;51.550;7.060;2023-11-19T04:13:19;100520.41;;;12.37;93.22
6208;BME280;3137;51.550;7.060;2023-11-19T04:15:45;100524.09;;;12.36;92.96
6208;BME280;3137;51.550;7.060;2023-11-19T04:18:12;100523.94;;;12.29;93.03
6208;BME280;3137;51.550;7.060;2023-11-19T04:20:39;100527.97;;;12.25;92.96
6208;BME280;3137;51.550;7.060;2023-11-19T04:23:08;100525.78;;;12.21;92.22
6208;BME280;3137;51.550;7.060;2023-11-19T04:25:35;100520.59;;;12.27;92.22
6208;BME280;3137;51.550;7.060;2023-11-19T04:28:02;100523.41;;;12.18;91.87
6208;BME280;3137;51.550;7.060;2023-11-19T04:30:28;100529.47;;;12.20;91.27
6208;BME280;3137;51.550;7.060;2023-11-19T04:32:55;100534.31;;;12.16;91.28
6208;BME280;3137;51.550;7.060;2023-11-19T04:35:22;100541.03;;;12.12;91.42
6208;BME280;3137;51.550;7.060;2023-11-19T04:37:48;100534.66;;;12.13;91.30
6208;BME280;3137;51.550;7.060;2023-11-19T04:40:15;100536.50;;;12.21;90.56
6208;BME280;3137;51.550;7.060;2023-11-19T04:42:42;100542.53;;;12.15;90.78
6208;BME280;3137;51.550;7.060;2023-11-19T04:45:09;100545.53;;;12.12;90.44
6208;BME280;3137;51.550;7.060;2023-11-19T04:47:36;100530.47;;;12.11;90.66
6208;BME280;3137;51.550;7.060;2023-11-19T04:50:04;100543.34;;;12.07;90.43
6208;BME280;3137;51.550;7.060;2023-11-19T04:52:30;100540.19;;;12.04;90.12
6208;BME280;3137;51.550;7.060;2023-11-19T04:54:57;100532.97;;;12.04;89.63
6208;BME280;3137;51.550;7.060;2023-11-19T04:57:23;100539.34;;;12.03;89.29
6208;BME280;3137;51.550;7.060;2023-11-19T04:59:50;100558.44;;;12.00;89.38
6208;BME280;3137;51.550;7.060;2023-11-19T05:02:16;100548.22;;;12.12;88.40
6208;BME280;3137;51.550;7.060;2023-11-19T05:04:43;100548.22;;;12.04;89.02
6208;BME280;3137;51.550;7.060;2023-11-19T05:07:13;100544.34;;;12.06;88.98
6208;BME280;3137;51.550;7.060;2023-11-19T05:09:40;100553.38;;;12.05;89.05
6208;BME280;3137;51.550;7.060;2023-11-19T05:12:07;100551.06;;;12.10;89.55
6208;BME280;3137;51.550;7.060;2023-11-19T05:14:38;100550.69;;;12.05;89.57
6208;BME280;3137;51.550;7.060;2023-11-19T05:17:04;100549.56;;;12.08;89.92
6208;BME280;3137;51.550;7.060;2023-11-19T05:19:31;100562.28;;;12.14;90.06
6208;BME280;3137;51.550;7.060;2023-11-19T05:21:57;100553.75;;;12.18;89.76
6208;BME280;3137;51.550;7.060;2023-11-19T05:24:24;100545.88;;;12.17;88.71
6208;BME280;3137;51.550;7.060;2023-11-19T05:26:51;100544.53;;;12.21;88.06
6208;BME280;3137;51.550;7.060;2023-11-19T05:29:18;100544.06;;;12.25;87.74
6208;BME280;3137;51.550;7.060;2023-11-19T05:31:44;100542.53;;;12.23;87.65
6208;BME280;3137;51.550;7.060;2023-11-19T05:34:11;100547.22;;;12.21;87.76
6208;BME280;3137;51.550;7.060;2023-11-19T05:36:38;100544.84;;;12.18;88.11
6208;BME280;3137;51.550;7.060;2023-11-19T05:39:05;100545.19;;;12.23;88.50
6208;BME280;3137;51.550;7.060;2023-11-19T05:41:32;100532.78;;;12.14;88.87
6208;BME280;3137;51.550;7.060;2023-11-19T05:43:58;100541.03;;;12.20;87.93
6208;BME280;3137;51.550;7.060;2023-11-19T05:46:25;100542.72;;;12.21;88.00
6208;BME280;3137;51.550;7.060;2023-11-19T05:48:53;100546.38;;;12.20;87.66
6208;BME280;3137;51.550;7.060;2023-11-19T05:51:20;100552.41;;;12.22;87.40
6208;BME280;3137;51.550;7.060;2023-11-19T05:53:46;100544.22;;;12.24;86.08
6208;BME280;3137;51.550;7.060;2023-11-19T05:56:13;100542.72;;;12.21;86.61
6208;BME280;3137;51.550;7.060;2023-11-19T05:58:42;100559.09;;;12.18;87.24
6208;BME280;3137;51.550;7.060;2023-11-19T06:01:10;100551.56;;;12.14;88.18
6208;BME280;3137;51.550;7.060;2023-11-19T06:03:37;100550.88;;;12.04;88.59
6208;BME280;3137;51.550;7.060;2023-11-19T06:06:04;100551.22;;;12.01;89.08
6208;BME280;3137;51.550;7.060;2023-11-19T06:08:32;100546.69;;;12.01;89.30
6208;BME280;3137;51.550;7.060;2023-11-19T06:10:58;100541.50;;;12.08;88.57
6208;BME280;3137;51.550;7.060;2023-11-19T06:13:27;100547.53;;;12.10;88.67
6208;BME280;3137;51.550;7.060;2023-11-19T06:15:53;100546.19;;;12.06;88.69
6208;BME280;3137;51.550;7.060;2023-11-19T06:18:20;100544.53;;;12.05;88.74
6208;BME280;3137;51.550;7.060;2023-11-19T06:20:47;100551.03;;;12.02;88.46
6208;BME280;3137;51.550;7.060;2023-11-19T06:23:13;100556.91;;;11.98;88.65
6208;BME280;3137;51.550;7.060;2023-11-19T06:25:40;100565.94;;;11.97;88.26
6208;BME280;3137;51.550;7.060;2023-11-19T06:28:07;100569.44;;;11.89;88.45
6208;BME280;3137;51.550;7.060;2023-11-19T06:30:33;100572.31;;;11.96;87.17
6208;BME280;3137;51.550;7.060;2023-11-19T06:33:00;100567.44;;;11.91;87.10
6208;BME280;3137;51.550;7.060;2023-11-19T06:35:27;100566.59;;;11.82;87.14
6208;BME280;3137;51.550;7.060;2023-11-19T06:37:55;100565.59;;;11.92;86.46
6208;BME280;3137;51.550;7.060;2023-11-19T06:40:22;100565.41;;;11.85;86.50
6208;BME280;3137;51.550;7.060;2023-11-19T06:42:48;100568.94;;;11.94;86.45
6208;BME280;3137;51.550;7.060;2023-11-19T06:45:15;100569.63;;;11.96;86.66
6208;BME280;3137;51.550;7.060;2023-11-19T06:47:42;100565.78;;;11.98;86.43
6208;BME280;3137;51.550;7.060;2023-11-19T06:50:08;100576.81;;;11.95;87.03
6208;BME280;3137;51.550;7.060;2023-11-19T06:52:35;100584.88;;;11.95;87.21
6208;BME280;3137;51.550;7.060;2023-11-19T06:55:04;100591.22;;;11.94;87.44
6208;BME280;3137;51.550;7.060;2023-11-19T06:57:34;100590.56;;;11.92;87.53
6208;BME280;3137;51.550;7.060;2023-11-19T07:00:01;100595.94;;;12.00;86.75
6208;BME280;3137;51.550;7.060;2023-11-19T07:02:28;100586.00;;;11.93;86.42
6208;BME280;3137;51.550;7.060;2023-11-19T07:04:54;100593.41;;;11.90;86.40
6208;BME280;3137;51.550;7.060;2023-11-19T07:07:21;100597.06;;;11.89;85.90
6208;BME280;3137;51.550;7.060;2023-11-19T07:09:47;100595.75;;;11.94;85.22
6208;BME280;3137;51.550;7.060;2023-11-19T07:12:14;100596.41;;;11.87;85.69
6208;BME280;3137;51.550;7.060;2023-11-19T07:14:41;100596.22;;;11.89;84.92
6208;BME280;3137;51.550;7.060;2023-11-19T07:17:10;100600.06;;;11.86;84.76
6208;BME280;3137;51.550;7.060;2023-11-19T07:19:37;100598.25;;;11.87;84.82
6208;BME280;3137;51.550;7.060;2023-11-19T07:22:05;100602.75;;;11.86;85.05
6208;BME280;3137;51.550;7.060;2023-11-19T07:24:33;100612.63;;;11.86;84.24
6208;BME280;3137;51.550;7.060;2023-11-19T07:26:59;100615.47;;;11.84;84.91
6208;BME280;3137;51.550;7.060;2023-11-19T07:29:26;100622.47;;;11.77;84.90
6208;BME280;3137;51.550;7.060;2023-11-19T07:31:55;100622.16;;;11.88;84.35
6208;BME280;3137;51.550;7.060;2023-11-19T07:34:24;100625.16;;;11.77;84.70
6208;BME280;3137;51.550;7.060;2023-11-19T07:36:51;100638.53;;;11.77;84.75
6208;BME280;3137;51.550;7.060;2023-11-19T07:39:18;100630.84;;;11.74;84.66
6208;BME280;3137;51.550;7.060;2023-11-19T07:41:44;100626.63;;;11.72;84.55
6208;BME280;3137;51.550;7.060;2023-11-19T07:44:11;100626.94;;;11.69;84.15
6208;BME280;3137;51.550;7.060;2023-11-19T07:46:37;100637.38;;;11.80;84.04
6208;BME280;3137;51.550;7.060;2023-11-19T07:49:04;100634.88;;;11.78;84.28
6208;BME280;3137;51.550;7.060;2023-11-19T07:51:30;100638.69;;;11.76;84.00
6208;BME280;3137;51.550;7.060;2023-11-19T07:53:57;100638.88;;;11.74;83.90
6208;BME280;3137;51.550;7.060;2023-11-19T07:56:24;100634.97;;;11.69;84.07
6208;BME280;3137;51.550;7.060;2023-11-19T07:58:51;100641.63;;;11.65;84.78
6208;BME280;3137;51.550;7.060;2023-11-19T08:01:18;100649.19;;;11.69;83.90
6208;BME280;3137;51.550;7.060;2023-11-19T08:03:44;100650.75;;;11.80;84.16
6208;BME280;3137;51.550;7.060;2023-11-19T08:06:14;100648.25;;;11.78;83.32
6208;BME280;3137;51.550;7.060;2023-11-19T08:08:40;100660.97;;;11.76;83.60
6208;BME280;3137;51.550;7.060;2023-11-19T08:11:07;100654.63;;;11.77;83.34
6208;BME280;3137;51.550;7.060;2023-11-19T08:13:33;100658.63;;;11.73;83.18
6208;BME280;3137;51.550;7.060;2023-11-19T08:16:00;100663.50;;;11.78;83.57
6208;BME280;3137;51.550;7.060;2023-11-19T08:18:26;100661.69;;;11.86;82.98
6208;BME280;3137;51.550;7.060;2023-11-19T08:20:53;100673.25;;;11.87;82.47
6208;BME280;3137;51.550;7.060;2023-11-19T08:23:20;100662.03;;;11.83;82.45
6208;BME280;3137;51.550;7.060;2023-11-19T08:25:47;100673.03;;;11.80;82.50
6208;BME280;3137;51.550;7.060;2023-11-19T08:28:13;100679.44;;;11.87;82.84
6208;BME280;3137;51.550;7.060;2023-11-19T08:30:40;100683.63;;;11.90;82.64
6208;BME280;3137;51.550;7.060;2023-11-19T08:33:07;100687.66;;;11.94;82.84
6208;BME280;3137;51.550;7.060;2023-11-19T08:35:33;100684.47;;;11.90;83.03
6208;BME280;3137;51.550;7.060;2023-11-19T08:38:00;100676.63;;;11.97;82.24
6208;BME280;3137;51.550;7.060;2023-11-19T08:40:27;100673.44;;;11.94;82.39
6208;BME280;3137;51.550;7.060;2023-11-19T08:42:53;100688.47;;;11.86;82.59
6208;BME280;3137;51.550;7.060;2023-11-19T08:45:20;100672.91;;;11.90;82.56
6208;BME280;3137;51.550;7.060;2023-11-19T08:47:46;100662.69;;;11.85;82.85
6208;BME280;3137;51.550;7.060;2023-11-19T08:50:13;100668.19;;;11.84;82.30
6208;BME280;3137;51.550;7.060;2023-11-19T08:52:40;100677.75;;;11.86;82.63
6208;BME280;3137;51.550;7.060;2023-11-19T08:55:06;100673.25;;;11.87;82.62
6208;BME280;3137;51.550;7.060;2023-11-19T08:57:33;100669.75;;;11.95;82.24
6208;BME280;3137;51.550;7.060;2023-11-19T08:59:59;100674.63;;;11.99;82.96
6208;BME280;3137;51.550;7.060;2023-11-19T09:02:26;100677.16;;;12.01;81.45
6208;BME280;3137;51.550;7.060;2023-11-19T09:04:52;100678.44;;;11.97;82.70
6208;BME280;3137;51.550;7.060;2023-11-19T09:07:20;100675.50;;;12.08;82.48
6208;BME280;3137;51.550;7.060;2023-11-19T09:09:47;100681.84;;;12.07;82.26
6208;BME280;3137;51.550;7.060;2023-11-19T09:12:14;100677.50;;;12.14;81.83
6208;BME280;3137;51.550;7.060;2023-11-19T09:14:40;100679.38;;;12.13;81.69
6208;BME280;3137;51.550;7.060;2023-11-19T09:17:08;100686.91;;;12.18;82.78
6208;BME280;3137;51.550;7.060;2023-11-19T09:19:36;100683.56;;;12.16;82.17
6208;BME280;3137;51.550;7.060;2023-11-19T09:22:02;100679.22;;;12.23;82.15
6208;BME280;3137;51.550;7.060;2023-11-19T09:24:29;100676.53;;;12.23;81.07
6208;BME280;3137;51.550;7.060;2023-11-19T09:26:55;100680.75;;;12.25;81.85
6208;BME280;3137;51.550;7.060;2023-11-19T09:29:22;100668.00;;;12.27;81.10
6208;BME280;3137;51.550;7.060;2023-11-19T09:31:50;100668.34;;;12.24;80.84
6208;BME280;3137;51.550;7.060;2023-11-19T09:34:16;100679.56;;;12.28;81.04
6208;BME280;3137;51.550;7.060;2023-11-19T09:36:43;100677.25;;;12.33;80.73
6208;BME280;3137;51.550;7.060;2023-11-19T09:39:11;100676.41;;;12.32;81.08
6208;BME280;3137;51.550;7.060;2023-11-19T09:41:39;100670.19;;;12.32;81.67
6208;BME280;3137;51.550;7.060;2023-11-19T09:44:06;100677.38;;;12.23;81.27
6208;BME280;3137;51.550;7.060;2023-11-19T09:46:32;100682.59;;;12.25;81.38
6208;BME280;3137;51.550;7.060;2023-11-19T09:49:00;100674.22;;;12.28;81.46
6208;BME280;3137;51.550;7.060;2023-11-19T09:51:29;100673.38;;;12.27;81.37
6208;BME280;3137;51.550;7.060;2023-11-19T09:53:55;100667.34;;;12.25;80.88
6208;BME280;3137;51.550;7.060;2023-11-19T09:56:22;100678.41;;;12.30;81.13
6208;BME280;3137;51.550;7.060;2023-11-19T09:58:49;100674.38;;;12.26;81.29
6208;BME280;3137;51.550;7.060;2023-11-19T10:01:16;100676.56;;;12.31;81.25
6208;BME280;3137;51.550;7.060;2023-11-19T10:03:55;100686.63;;;12.37;80.89
6208;BME280;3137;51.550;7.060;2023-11-19T10:06:22;100665.84;;;12.39;80.94
6208;BME280;3137;51.550;7.060;2023-11-19T10:08:51;100673.94;;;12.47;80.59
6208;BME280;3137;51.550;7.060;2023-11-19T10:11:17;100663.22;;;12.55;80.43
6208;BME280;3137;51.550;7.060;2023-11-19T10:13:44;100659.69;;;12.63;79.86
6208;BME280;3137;51.550;7.060;2023-11-19T10:16:14;100659.03;;;12.77;79.21
6208;BME280;3137;51.550;7.060;2023-11-19T10:18:48;100656.50;;;12.75;79.20
6208;BME280;3137;51.550;7.060;2023-11-19T10:21:19;100665.56;;;12.66;78.65
6208;BME280;3137;51.550;7.060;2023-11-19T10:23:54;100657.16;;;12.69;78.64
6208;BME280;3137;51.550;7.060;2023-11-19T10:26:21;100659.19;;;12.67;78.79
6208;BME280;3137;51.550;7.060;2023-11-19T10:28:48;100656.00;;;12.64;79.54
6208;BME280;3137;51.550;7.060;2023-11-19T10:31:15;100650.81;;;12.70;78.22
6208;BME280;3137;51.550;7.060;2023-11-19T10:33:43;100646.78;;;12.74;78.38
6208;BME280;3137;51.550;7.060;2023-11-19T10:36:12;100641.75;;;12.88;77.58
6208;BME280;3137;51.550;7.060;2023-11-19T10:38:39;100637.38;;;12.95;78.32
6208;BME280;3137;51.550;7.060;2023-11-19T10:41:06;100648.31;;;12.93;78.56
6208;BME280;3137;51.550;7.060;2023-11-19T10:43:43;100644.28;;;12.89;77.34
6208;BME280;3137;51.550;7.060;2023-11-19T10:46:14;100656.50;;;12.92;77.24
6208;BME280;3137;51.550;7.060;2023-11-19T10:48:41;100645.78;;;12.83;77.72
6208;BME280;3137;51.550;7.060;2023-11-19T10:51:07;100651.31;;;12.90;77.10
6208;BME280;3137;51.550;7.060;2023-11-19T10:53:38;100650.78;;;12.95;77.73
6208;BME280;3137;51.550;7.060;2023-11-19T10:56:06;100645.44;;;12.95;76.21
6208;BME280;3137;51.550;7.060;2023-11-19T10:58:37;100648.44;;;13.00;77.28
6208;BME280;3137;51.550;7.060;2023-11-19T11:01:19;100645.28;;;12.96;77.37
6208;BME280;3137;51.550;7.060;2023-11-19T11:03:51;100646.44;;;13.02;77.31
6208;BME280;3137;51.550;7.060;2023-11-19T11:06:18;100645.13;;;12.98;76.53
6208;BME280;3137;51.550;7.060;2023-11-19T11:08:46;100649.31;;;12.92;76.46
6208;BME280;3137;51.550;7.060;2023-11-19T11:11:15;100639.06;;;12.88;76.98
6208;BME280;3137;51.550;7.060;2023-11-19T11:13:47;100646.63;;;12.84;77.38
6208;BME280;3137;51.550;7.060;2023-11-19T11:16:14;100631.88;;;12.88;76.75
6208;BME280;3137;51.550;7.060;2023-11-19T11:18:41;100643.44;;;12.80;77.11
6208;BME280;3137;51.550;7.060;2023-11-19T11:21:13;100644.28;;;12.81;77.40
6208;BME280;3137;51.550;7.060;2023-11-19T11:29:45;100635.38;;;12.89;76.48
6208;BME280;3137;51.550;7.060;2023-11-19T11:32:18;100641.25;;;12.92;75.77
6208;BME280;3137;51.550;7.060;2023-11-19T11:37:34;100642.59;;;12.88;75.93
6208;BME280;3137;51.550;7.060;2023-11-19T11:40:04;100631.69;;;12.98;75.00
6208;BME280;3137;51.550;7.060;2023-11-19T11:42:37;100628.19;;;12.97;75.25
6208;BME280;3137;51.550;7.060;2023-11-19T11:45:05;100616.09;;;13.01;74.28
6208;BME280;3137;51.550;7.060;2023-11-19T11:50:16;100611.38;;;13.11;74.11
6208;BME280;3137;51.550;7.060;2023-11-19T11:55:28;100594.63;;;13.17;74.28
6208;BME280;3137;51.550;7.060;2023-11-19T11:57:55;100608.88;;;13.18;73.85
6208;BME280;3137;51.550;7.060;2023-11-19T12:00:26;100606.31;;;13.24;74.13
6208;BME280;3137;51.550;7.060;2023-11-19T12:02:57;100596.38;;;13.41;73.17
6208;BME280;3137;51.550;7.060;2023-11-19T12:05:25;100593.66;;;13.57;73.14
6208;BME280;3137;51.550;7.060;2023-11-19T12:08:02;100602.22;;;13.53;72.67
6208;BME280;3137;51.550;7.060;2023-11-19T12:10:31;100599.72;;;13.51;72.88
6208;BME280;3137;51.550;7.060;2023-11-19T12:12:59;100604.75;;;13.46;72.50
6208;BME280;3137;51.550;7.060;2023-11-19T12:15:28;100596.56;;;13.40;72.81
6208;BME280;3137;51.550;7.060;2023-11-19T12:17:55;100595.41;;;13.34;72.44
6208;BME280;3137;51.550;7.060;2023-11-19T12:20:26;100600.63;;;13.27;72.79
6208;BME280;3137;51.550;7.060;2023-11-19T12:22:55;100596.59;;;13.32;72.51
6208;BME280;3137;51.550;7.060;2023-11-19T12:25:22;100590.03;;;13.34;72.34
6208;BME280;3137;51.550;7.060;2023-11-19T12:27:50;100594.22;;;13.37;72.29
6208;BME280;3137;51.550;7.060;2023-11-19T12:30:25;100581.34;;;13.32;71.57
6208;BME280;3137;51.550;7.060;2023-11-19T12:32:53;100579.84;;;13.21;72.50
6208;BME280;3137;51.550;7.060;2023-11-19T12:35:20;100586.69;;;13.32;72.58
6208;BME280;3137;51.550;7.060;2023-11-19T12:37:48;100577.28;;;13.36;71.84
6208;BME280;3137;51.550;7.060;2023-11-19T12:40:20;100582.31;;;13.39;72.28
6208;BME280;3137;51.550;7.060;2023-11-19T12:42:48;100575.59;;;13.35;72.63
6208;BME280;3137;51.550;7.060;2023-11-19T12:45:15;100578.66;;;13.24;73.18
6208;BME280;3137;51.550;7.060;2023-11-19T12:47:43;100571.44;;;13.16;72.50
6208;BME280;3137;51.550;7.060;2023-11-19T12:50:10;100570.97;;;13.05;76.05
6208;BME280;3137;51.550;7.060;2023-11-19T12:52:37;100576.03;;;12.75;77.65
6208;BME280;3137;51.550;7.060;2023-11-19T12:55:05;100574.38;;;12.42;80.42
6208;BME280;3137;51.550;7.060;2023-11-19T12:57:39;100579.72;;;12.26;82.09
6208;BME280;3137;51.550;7.060;2023-11-19T13:00:17;100580.03;;;12.07;83.31
6208;BME280;3137;51.550;7.060;2023-11-19T13:02:53;100591.94;;;12.12;82.49
6208;BME280;3137;51.550;7.060;2023-11-19T13:05:30;100574.69;;;12.15;83.09
6208;BME280;3137;51.550;7.060;2023-11-19T13:07:59;100582.72;;;12.23;83.84
6208;BME280;3137;51.550;7.060;2023-11-19T13:10:28;100591.13;;;12.36;83.53
6208;BME280;3137;51.550;7.060;2023-11-19T13:13:02;100595.16;;;12.40;81.88
6208;BME280;3137;51.550;7.060;2023-11-19T13:15:29;100583.75;;;12.46;82.39
6208;BME280;3137;51.550;7.060;2023-11-19T13:17:56;100579.41;;;12.53;82.26
6208;BME280;3137;51.550;7.060;2023-11-19T13:20:22;100585.94;;;12.59;82.22
6208;BME280;3137;51.550;7.060;2023-11-19T13:23:05;100587.44;;;12.45;82.22
6208;BME280;3137;51.550;7.060;2023-11-19T13:25:32;100581.44;;;12.51;79.89
6208;BME280;3137;51.550;7.060;2023-11-19T13:27:59;100592.66;;;12.55;80.37